Nearby METAR Reports

 

EGEO - Oban, United Kingdom
Distance from station: SSW 18mi, 30km
Updated: 05/07/2022 14:20
Few Clouds
Few Clouds
 Wind from WNW
Wind: WNW 12 mph , 19 km/h
Temperature: 15°C
Dew Point: 10°C
Humidity: 72%
Barometer: 1025 hPa
Clouds: Few Clouds
Visibility: 6 miles , 10 km
Cloud details: Few Clouds 1250 m
2022/07/05 13:20 EGEO 051320Z 29010KT 9999 FEW041 15/10 Q1025
EGPU - Tiree, United Kingdom
Distance from station: WSW 64mi, 103km
Updated: 05/07/2022 13:50
Few Clouds
Few Clouds
 Wind from WNW
Wind: WNW 13 mph , 20 km/h
Temperature: 15°C
Dew Point: 9°C
Humidity: 68%
Barometer: 1025 hPa
Clouds: Few Clouds
Visibility: 6 miles , 10 km
Cloud details: Few Clouds 671 m
2022/07/05 12:50 EGPU 051250Z 29011KT 9999 FEW022 15/09 Q1025
EGPF - Glasgow, United Kingdom
Distance from station: SSE 66mi, 107km
Updated: 05/07/2022 13:50
Mostly cloudy
Mostly cloudy
 Wind from W
Wind: W 12 mph , 19 km/h
Temperature: 16°C
Dew Point: 8°C
Humidity: 59%
Barometer: 1024 hPa
Clouds: Mostly cloudy
Visibility: 6 miles , 10 km
Cloud details: Mostly cloudy 1189 m
2022/07/05 12:50 EGPF 051250Z AUTO 28010KT 9999 BKN039 16/08 Q1024
 
EGPE - Inverness, United Kingdom
Distance from station: NE 71mi, 114km
Updated: 05/07/2022 13:50
Few Clouds
Few Clouds
 Wind from W
Wind: W 12 mph , 19 km/h
Temperature: 17°C
Dew Point: 8°C
Humidity: 56%
Barometer: 1022 hPa
Clouds: Few Clouds
Visibility: 6 miles , 10 km
Cloud details: Few Clouds 1219 m
2022/07/05 12:50 EGPE 051250Z 26010KT 9999 FEW040 17/08 Q1022
EGPI - Islay/Port Ellen, United Kingdom
Distance from station: SSW 81mi, 131km
Updated: 05/07/2022 13:50
Few Clouds
Few Clouds
 Wind from WNW
Wind: WNW 14 mph , 22 km/h
Temperature: 16°C
Dew Point: 9°C
Humidity: 63%
Barometer: 1026 hPa
Clouds: Few Clouds
Visibility: 6 miles , 10 km
Cloud details: Few Clouds 1097 m
2022/07/05 12:50 EGPI 051250Z 29012KT 9999 FEW036 16/09 Q1026
EGPN - Dundee/Riverside, United Kingdom
Distance from station: E 86mi, 138km
Updated: 05/07/2022 13:50
Few Clouds
Few Clouds
 Wind from W
Wind: W 6 mph , 9 km/h
Temperature: 18°C
Dew Point: 6°C
Humidity: 46%
Barometer: 1022 hPa
Clouds: Few Clouds
Visibility: 6 miles , 10 km
Cloud details: Few Clouds 1067 m
2022/07/05 12:50 EGPN 051250Z 27005KT 240V330 9999 FEW035 18/06 Q1022
 
EGPK - Prestwick, United Kingdom
Distance from station: SSE 88mi, 141km
Updated: 05/07/2022 13:50
Partly cloudy
Partly cloudy
 Wind from WNW
Wind: WNW 15 mph , 24 km/h
Temperature: 17°C
Dew Point: 8°C
Humidity: 56%
Barometer: 1025 hPa
Clouds: Partly cloudy
Visibility: 6 miles , 10 km
Cloud details: Partly cloudy 1250 m
2022/07/05 12:50 EGPK 051250Z 29013KT 9999 SCT041 17/08 Q1025
EGPH - Edinburgh, United Kingdom
Distance from station: SE 89mi, 143km
Updated: 05/07/2022 13:50
Partly cloudy
Partly cloudy
 Wind from W
Wind: W 9 mph , 15 km/h
Temperature: 17°C
Dew Point: 6°C
Humidity: 49%
Barometer: 1023 hPa
Clouds: Partly cloudy
Visibility: 6 miles , 10 km
Cloud details: Partly cloudy 1280 m
2022/07/05 12:50 EGPH 051250Z 28008KT 240V330 9999 SCT042 17/06 Q1023
EGQK - RAF Kinloss, United Kingdom
Distance from station: NE 90mi, 144km
Updated: 05/07/2022 13:50

 Wind from W
Wind: W 6 mph , 9 km/h
Visibility: 6 miles , 10 km
2022/07/05 12:50 EGQK 051250Z AUTO 27005KT 9999 REDZ FEW030/// OVC046/// 15/09 Q1022
 
EGEC - Campbeltown, United Kingdom
Distance from station: S 90mi, 145km
Updated: 05/07/2022 13:50
Partly cloudy
Partly cloudy
 Wind from W
Wind: W 12 mph , 19 km/h
Temperature: 14°C
Dew Point: 10°C
Humidity: 77%
Barometer: 1026 hPa
Clouds: Partly cloudy
Visibility: 6 miles , 10 km
Cloud details: Partly cloudy 762 m
Partly cloudy 914 m
2022/07/05 12:50 EGEC 051250Z 27010KT 9999 SCT025 SCT030 14/10 Q1026
EGQA - Tain Range, United Kingdom
Distance from station: NNE 91mi, 146km
Updated: 05/07/2022 12:50
NOT Current
Mostly cloudy
Mostly cloudy
 Wind from W
Wind: W 14 mph , 22 km/h
Clouds: Mostly cloudy
Visibility: 6 miles , 10 km
Cloud details: Mostly cloudy 1219 m
2022/07/05 11:50 EGQA 051150Z 26012KT 9999 BKN040 16/// Q1022 RMK BLU
EGQL - RAF Leuchars, United Kingdom
Distance from station: ESE 93mi, 149km
Updated: 05/07/2022 13:50
Partly cloudy
Partly cloudy
 Wind from WNW
Wind: WNW 10 mph , 17 km/h
Temperature: 18°C
Dew Point: 5°C
Humidity: 43%
Barometer: 1022 hPa
Clouds: Partly cloudy
Visibility: 6 miles , 10 km
Cloud details: Partly cloudy 1463 m
Partly cloudy 1981 m
2022/07/05 12:50 EGQL 051250Z 30009KT 9999 SCT048 SCT065 18/05 Q1022 RMK BLU
 
EGPL - Benbecula, United Kingdom
Distance from station: WNW 96mi, 154km
Updated: 05/07/2022 13:50
Partly cloudy
Partly cloudy
 Wind from WSW
Wind: WSW 15 mph , 24 km/h
Temperature: 15°C
Dew Point: 9°C
Humidity: 68%
Barometer: 1024 hPa
Clouds: Partly cloudy
Visibility: 6 miles , 10 km
Cloud details: Few Clouds 671 m
Partly cloudy 1494 m
2022/07/05 12:50 EGPL 051250Z 24013KT 9999 FEW022 SCT049 15/09 Q1024
EGQS - RAF Lossiemouth, United Kingdom
Distance from station: NE 99mi, 160km
Updated: 05/07/2022 13:50
Mostly cloudy
Mostly cloudy
 Wind from WNW
Wind: WNW 12 mph , 19 km/h
Temperature: 15°C
Dew Point: 8°C
Humidity: 63%
Barometer: 1022 hPa
Clouds: Mostly cloudy
Visibility: 6 miles , 10 km
Cloud details: Few Clouds 914 m
Mostly cloudy 1676 m
2022/07/05 12:50 EGQS 051250Z 29010KT 9999 FEW030 BKN055 15/08 Q1022 NOSIG RMK BLU BLU
EGPO - Stornoway, United Kingdom
Distance from station: NNW 111mi, 179km
Updated: 05/07/2022 13:50
Partly cloudy
Partly cloudy
 Wind from WSW
Wind: WSW 9 mph , 15 km/h
Temperature: 16°C
Dew Point: 8°C
Humidity: 59%
Barometer: 1022 hPa
Clouds: Partly cloudy
Visibility: 6 miles , 10 km
Cloud details: Few Clouds 671 m
Partly cloudy 1036 m
2022/07/05 12:50 EGPO 051250Z 25008KT 210V270 9999 FEW022 SCT034 16/08 Q1022
 
EGPD - Aberdeen/Dyce, United Kingdom
Distance from station: ENE 118mi, 190km
Updated: 05/07/2022 13:50
Mostly cloudy
Mostly cloudy
 Wind from NNW
Wind: NNW 13 mph , 20 km/h
Temperature: 14°C
Dew Point: 7°C
Humidity: 63%
Barometer: 1022 hPa
Clouds: Mostly cloudy
Visibility: 6 miles , 10 km
Cloud details: Few Clouds 1006 m
Mostly cloudy 1219 m
2022/07/05 12:50 EGPD 051250Z AUTO 34011KT 9999 FEW033 BKN040 14/07 Q1022
EGAE - Eglinton/Londond, United Kingdom
Distance from station: SSW 138mi, 222km
Updated: 05/07/2022 13:50
Mostly cloudy
Mostly cloudy
 Wind from WNW
Wind: WNW 14 mph , 22 km/h
Temperature: 17°C
Dew Point: 13°C
Humidity: 77%
Barometer: 1026 hPa
Clouds: Mostly cloudy
Visibility: 6 miles , 10 km
Cloud details: Few Clouds 488 m
Mostly cloudy 671 m
2022/07/05 12:50 EGAE 051250Z 29012KT 9999 FEW016 BKN022 17/13 Q1026
EGPC - Wick, United Kingdom
Distance from station: NNE 144mi, 232km
Updated: 05/07/2022 13:50
Partly cloudy
Partly cloudy
 Wind from WNW
Wind: WNW 12 mph , 19 km/h
Temperature: 14°C
Dew Point: 6°C
Humidity: 59%
Barometer: 1022 hPa
Clouds: Partly cloudy
Visibility: 6 miles , 10 km
Cloud details: Partly cloudy 975 m
2022/07/05 12:50 EGPC 051250Z 30010KT 9999 SCT032 14/06 Q1022

Metar display script from Saratoga-Weather.org